Time;durP1;ratioP1;P1;durP2;ratioP2;P2;SDS_P1;SDS_P2;PMS_P1;PMS_P2;Temp;Humidity;BMP_temperature;BMP_pressure;BME280_temperature;BME280_humidity;BME280_pressure;Samples;Min_cycle;Max_cycle;Signal;HPM_P1;HPM_P2
2021/09/16 00:01:47;;;;;;;18.90;10.93;;;537.80;2355.20;;;;;;5049849;28;20104;-73
2021/09/16 00:04:13;;;;;;;13.20;9.73;;;537.80;2380.80;;;;;;5028664;28;20051;-73
2021/09/16 00:06:40;;;;;;;17.75;10.45;;;537.80;2380.80;;;;;;5039455;28;20047;-73
2021/09/16 00:09:06;;;;;;;14.00;10.50;;;537.70;2380.80;;;;;;5042341;28;20488;-73
2021/09/16 00:11:31;;;;;;;24.30;10.18;;;537.70;2380.80;;;;;;5050581;28;20060;-73
2021/09/16 00:13:57;;;;;;;19.48;10.23;;;512.90;2355.20;;;;;;5053240;28;20036;-73
2021/09/16 00:16:23;;;;;;;12.55;9.40;;;537.60;2406.40;;;;;;5039601;28;20041;-73
2021/09/16 00:18:49;;;;;;;22.20;11.77;;;537.60;2406.40;;;;;;5045516;28;20056;-73
2021/09/16 00:21:15;;;;;;;13.00;9.88;;;537.60;2406.40;;;;;;5045838;28;20104;-73
2021/09/16 00:23:41;;;;;;;15.48;11.07;;;537.60;2406.40;;;;;;5052720;28;20051;-73
2021/09/16 00:26:06;;;;;;;21.02;11.52;;;512.90;2380.80;;;;;;5053463;28;20025;-73
2021/09/16 00:28:32;;;;;;;17.67;11.90;;;537.60;2406.40;;;;;;5052847;28;20029;-73
2021/09/16 00:30:58;;;;;;;18.40;12.10;;;512.90;2380.80;;;;;;5053250;28;20120;-73
2021/09/16 00:33:24;;;;;;;17.55;12.65;;;512.90;2380.80;;;;;;5052919;28;20028;-73
2021/09/16 00:35:49;;;;;;;30.27;13.85;;;537.60;2406.40;;;;;;5052816;28;20025;-73
2021/09/16 00:38:15;;;;;;;17.70;13.73;;;537.60;2406.40;;;;;;5052842;28;20115;-73
2021/09/16 00:40:41;;;;;;;25.65;17.02;;;512.90;2380.80;;;;;;5052579;28;20029;-73
2021/09/16 00:43:06;;;;;;;23.25;17.92;;;512.90;2380.80;;;;;;5049468;28;20017;-73
2021/09/16 00:45:32;;;;;;;28.23;21.02;;;512.90;2380.80;;;;;;5042335;28;20086;-73
2021/09/16 00:47:58;;;;;;;32.72;25.30;;;512.90;2380.80;;;;;;5038806;28;20021;-73
2021/09/16 00:50:25;;;;;;;31.52;26.95;;;512.90;2380.80;;;;;;5052599;28;20029;-73
2021/09/16 00:52:51;;;;;;;36.90;28.10;;;512.90;2380.80;;;;;;5052910;28;20025;-73
2021/09/16 00:55:19;;;;;;;41.92;31.30;;;512.80;2380.80;;;;;;5046592;28;20013;-73
2021/09/16 00:57:53;;;;;;;47.95;33.00;;;512.80;2380.80;;;;;;5032871;28;20086;-73
2021/09/16 01:00:20;;;;;;;38.65;33.22;;;512.80;2380.80;;;;;;5030844;28;20022;-73
2021/09/16 01:02:45;;;;;;;47.22;38.53;;;512.80;2380.80;;;;;;5032267;28;20028;-73
2021/09/16 01:05:12;;;;;;;54.55;41.97;;;512.80;2380.80;;;;;;5046561;28;20025;-73
2021/09/16 01:07:39;;;;;;;53.90;45.83;;;512.90;2380.80;;;;;;5041658;28;20052;-73
2021/09/16 01:10:07;;;;;;;56.38;48.67;;;512.80;2380.80;;;;;;5052549;28;20021;-73
2021/09/16 01:12:34;;;;;;;60.25;53.60;;;512.80;2380.80;;;;;;5043487;28;20037;-74
2021/09/16 01:15:00;;;;;;;58.38;49.65;;;512.80;2380.80;;;;;;5032758;28;20095;-73
2021/09/16 01:17:26;;;;;;;54.03;46.20;;;512.80;2380.80;;;;;;5034256;28;20415;-73
2021/09/16 01:19:51;;;;;;;56.20;46.80;;;512.80;2380.80;;;;;;5039498;28;20115;-73
2021/09/16 01:22:22;;;;;;;59.20;46.92;;;512.80;2380.80;;;;;;5032815;28;20060;-74
2021/09/16 01:24:49;;;;;;;57.50;43.50;;;512.80;2380.80;;;;;;5051708;28;20052;-74
2021/09/16 01:27:15;;;;;;;55.13;45.22;;;512.80;2380.80;;;;;;5052170;28;20009;-74
2021/09/16 01:29:41;;;;;;;57.75;45.63;;;512.70;2380.80;;;;;;5051602;28;20029;-74
2021/09/16 01:32:07;;;;;;;54.53;45.38;;;512.70;2380.80;;;;;;5051329;28;20501;-74
2021/09/16 01:34:33;;;;;;;50.95;41.30;;;512.60;2380.80;;;;;;5037429;28;20079;-74
2021/09/16 01:37:00;;;;;;;49.67;41.83;;;512.60;2380.80;;;;;;5038330;28;20026;-73
2021/09/16 01:39:26;;;;;;;61.90;43.95;;;512.50;2380.80;;;;;;5026841;28;20427;-74
2021/09/16 01:41:53;;;;;;;47.30;40.13;;;512.50;2380.80;;;;;;5051917;28;20029;-74
2021/09/16 01:44:19;;;;;;;47.15;39.58;;;512.50;2380.80;;;;;;5051851;28;20030;-74
2021/09/16 01:46:45;;;;;;;47.00;39.08;;;512.50;2380.80;;;;;;5033530;28;20071;-74
2021/09/16 01:49:12;;;;;;;49.42;38.53;;;512.50;2380.80;;;;;;5030421;28;20033;-74
2021/09/16 01:51:38;;;;;;;45.17;35.90;;;512.40;2380.80;;;;;;5045418;28;20060;-74
2021/09/16 01:54:06;;;;;;;41.05;33.78;;;512.40;2380.80;;;;;;5041635;28;20028;-73
2021/09/16 01:56:32;;;;;;;38.67;30.50;;;512.40;2380.80;;;;;;5019595;28;20468;-74
2021/09/16 01:58:58;;;;;;;40.88;32.20;;;512.30;2380.80;;;;;;5043620;28;20032;-73
2021/09/16 02:01:24;;;;;;;39.90;30.75;;;512.40;2380.80;;;;;;5027574;28;20032;-73
2021/09/16 02:03:54;;;;;;;44.15;34.80;;;512.30;2380.80;;;;;;5027687;28;20436;-74
2021/09/16 02:06:21;;;;;;;43.05;32.72;;;512.30;2380.80;;;;;;5050282;28;20033;-73
2021/09/16 02:08:47;;;;;;;40.50;35.08;;;512.20;2380.80;;;;;;5050891;28;20033;-73
2021/09/16 02:11:13;;;;;;;42.97;32.50;;;512.30;2380.80;;;;;;5040638;28;20057;-73
2021/09/16 02:13:39;;;;;;;34.58;29.92;;;512.30;2380.80;;;;;;5044914;28;20064;-73
2021/09/16 02:16:05;;;;;;;40.67;31.40;;;512.30;2380.80;;;;;;5040474;28;20025;-73
2021/09/16 02:18:31;;;;;;;41.80;30.98;;;512.30;2380.80;;;;;;5050969;28;20028;-73
2021/09/16 02:20:57;;;;;;;40.33;31.15;;;512.30;2380.80;;;;;;5017509;28;20022;-73
2021/09/16 02:23:25;;;;;;;39.72;31.75;;;512.30;2380.80;;;;;;5043994;28;20028;-73
2021/09/16 02:25:51;;;;;;;42.38;31.52;;;512.20;2380.80;;;;;;5045854;28;20101;-73
2021/09/16 02:28:17;;;;;;;45.53;34.25;;;512.30;2380.80;;;;;;5023840;28;20120;-72
2021/09/16 02:30:42;;;;;;;50.72;38.42;;;512.30;2380.80;;;;;;5050799;28;20100;-72
2021/09/16 02:33:09;;;;;;;57.05;42.08;;;512.20;2380.80;;;;;;5051040;28;20031;-72
2021/09/16 02:35:35;;;;;;;58.40;44.75;;;512.20;2380.80;;;;;;5033081;28;20079;-72
2021/09/16 02:38:01;;;;;;;61.72;48.58;;;512.20;2380.80;;;;;;5051353;28;20025;-72
2021/09/16 02:40:27;;;;;;;60.90;46.35;;;512.30;2380.80;;;;;;5023398;28;20047;-73
2021/09/16 02:42:53;;;;;;;56.70;45.50;;;512.30;2380.80;;;;;;5049916;28;20552;-73
2021/09/16 02:45:19;;;;;;;51.47;39.85;;;512.30;2380.80;;;;;;5046745;28;20074;-73
2021/09/16 02:47:45;;;;;;;52.55;40.38;;;512.40;2380.80;;;;;;5053468;28;20693;-73
2021/09/16 02:50:11;;;;;;;51.35;38.97;;;512.50;2380.80;;;;;;5040459;28;20033;-73
2021/09/16 02:52:37;;;;;;;49.55;39.40;;;512.50;2380.80;;;;;;5055293;28;20166;-73
2021/09/16 02:55:03;;;;;;;47.75;38.63;;;512.50;2380.80;;;;;;5054584;28;20096;-73
2021/09/16 02:57:29;;;;;;;42.55;32.70;;;512.60;2380.80;;;;;;5054296;28;20029;-73
2021/09/16 02:59:55;;;;;;;31.17;26.42;;;512.50;2380.80;;;;;;5051035;28;20033;-73
2021/09/16 03:02:21;;;;;;;35.63;24.95;;;512.40;2380.80;;;;;;5020713;28;20029;-73
2021/09/16 03:04:47;;;;;;;29.38;22.00;;;512.60;2380.80;;;;;;5047882;28;20029;-72
2021/09/16 03:07:12;;;;;;;23.63;17.02;;;512.60;2380.80;;;;;;5053673;28;20013;-72
2021/09/16 03:09:38;;;;;;;20.70;14.40;;;512.50;2380.80;;;;;;5054651;28;20025;-72
2021/09/16 03:12:04;;;;;;;22.63;16.55;;;512.50;2380.80;;;;;;5054255;28;20493;-73
2021/09/16 03:14:30;;;;;;;20.42;13.85;;;512.60;2380.80;;;;;;5026406;28;20033;-72
2021/09/16 03:16:56;;;;;;;18.67;14.57;;;512.70;2380.80;;;;;;5033061;28;20028;-73
2021/09/16 03:19:22;;;;;;;17.40;13.73;;;512.80;2380.80;;;;;;5054419;28;20324;-72
2021/09/16 03:21:47;;;;;;;19.77;13.95;;;512.80;2380.80;;;;;;5053931;28;20033;-72
2021/09/16 03:24:13;;;;;;;17.92;13.23;;;512.90;2380.80;;;;;;5054294;28;20045;-72
2021/09/16 03:26:39;;;;;;;26.77;14.77;;;512.90;2380.80;;;;;;5035908;28;20373;-73
2021/09/16 03:29:05;;;;;;;21.33;13.13;;;537.60;2406.40;;;;;;5053922;28;20036;-73
2021/09/16 03:31:30;;;;;;;19.77;13.65;;;537.60;2406.40;;;;;;5042258;28;20036;-73
2021/09/16 03:33:56;;;;;;;18.83;13.95;;;537.70;2406.40;;;;;;5035933;28;20021;-73
2021/09/16 03:36:22;;;;;;;20.70;13.32;;;537.70;2406.40;;;;;;5051257;28;20040;-73
2021/09/16 03:38:48;;;;;;;17.60;12.63;;;537.60;2406.40;;;;;;5040314;28;20029;-73
2021/09/16 03:41:13;;;;;;;18.52;13.45;;;537.70;2406.40;;;;;;5053956;28;20074;-73
2021/09/16 03:43:39;;;;;;;20.95;12.38;;;537.60;2406.40;;;;;;5053870;28;20021;-73
2021/09/16 03:46:05;;;;;;;18.20;11.82;;;537.60;2406.40;;;;;;5053792;28;20498;-73
2021/09/16 03:48:30;;;;;;;17.17;12.25;;;512.90;2380.80;;;;;;5053877;28;20025;-73
2021/09/16 03:50:56;;;;;;;23.67;12.48;;;512.90;2380.80;;;;;;5053796;28;20040;-73
2021/09/16 03:53:22;;;;;;;14.68;10.90;;;537.60;2406.40;;;;;;5053492;28;20096;-73
2021/09/16 03:55:48;;;;;;;18.10;12.75;;;512.80;2380.80;;;;;;5052648;28;20024;-74
2021/09/16 03:58:13;;;;;;;19.33;12.05;;;512.70;2380.80;;;;;;5053641;28;20494;-74
2021/09/16 04:00:39;;;;;;;17.10;12.38;;;512.70;2380.80;;;;;;5039821;28;20037;-73
2021/09/16 04:03:07;;;;;;;17.13;12.18;;;512.80;2380.80;;;;;;5053468;28;20511;-73
2021/09/16 04:05:33;;;;;;;15.40;10.93;;;512.70;2380.80;;;;;;5053381;28;20428;-73
2021/09/16 04:07:59;;;;;;;17.35;11.30;;;512.90;2380.80;;;;;;5040409;28;20020;-73
2021/09/16 04:10:24;;;;;;;18.50;12.30;;;512.90;2380.80;;;;;;5035165;28;20028;-73
2021/09/16 04:12:50;;;;;;;17.75;13.43;;;512.90;2380.80;;;;;;5054617;28;20458;-73
2021/09/16 04:15:16;;;;;;;22.33;13.52;;;512.90;2380.80;;;;;;5061210;28;20024;-73
2021/09/16 04:17:41;;;;;;;20.35;13.80;;;512.90;2380.80;;;;;;5058401;28;20029;-73
2021/09/16 04:20:08;;;;;;;15.57;13.07;;;537.70;2406.40;;;;;;5040008;28;20041;-72
2021/09/16 04:22:34;;;;;;;19.02;13.75;;;537.70;2406.40;;;;;;5035055;28;20033;-73
2021/09/16 04:25:00;;;;;;;24.30;14.32;;;537.70;2406.40;;;;;;5053259;28;20036;-73
2021/09/16 04:27:25;;;;;;;16.95;12.55;;;537.80;2406.40;;;;;;5032640;28;20029;-74
2021/09/16 04:29:51;;;;;;;14.18;11.35;;;537.80;2406.40;;;;;;5031801;28;20030;-73
2021/09/16 04:32:17;;;;;;;13.55;12.10;;;537.80;2406.40;;;;;;5033886;28;20033;-73
2021/09/16 04:34:43;;;;;;;18.73;11.07;;;537.90;2406.40;;;;;;5025881;28;20064;-73
2021/09/16 04:37:08;;;;;;;17.00;12.35;;;537.90;2406.40;;;;;;5021233;28;20111;-72
2021/09/16 04:39:34;;;;;;;13.23;10.88;;;537.90;2406.40;;;;;;5052366;28;20075;-73
2021/09/16 04:42:00;;;;;;;15.85;11.65;;;537.90;2406.40;;;;;;5052921;28;20482;-73
2021/09/16 04:44:26;;;;;;;19.38;11.80;;;537.90;2406.40;;;;;;5052779;28;20021;-73
2021/09/16 04:46:51;;;;;;;16.08;11.43;;;537.80;2406.40;;;;;;5046074;28;20025;-74
2021/09/16 04:49:17;;;;;;;17.90;10.40;;;537.70;2406.40;;;;;;5047977;28;20047;-74
2021/09/16 04:51:44;;;;;;;16.27;11.70;;;537.70;2406.40;;;;;;5052752;28;20581;-73
2021/09/16 04:54:11;;;;;;;18.55;11.30;;;537.80;2406.40;;;;;;5052473;28;20025;-73
2021/09/16 04:56:37;;;;;;;14.30;10.85;;;537.90;2406.40;;;;;;5049483;28;20076;-73
2021/09/16 04:59:02;;;;;;;19.23;12.57;;;537.90;2406.40;;;;;;5052416;28;20029;-74
2021/09/16 05:01:28;;;;;;;16.50;11.95;;;537.90;2406.40;;;;;;5043922;28;20022;-73
2021/09/16 05:03:54;;;;;;;18.00;10.57;;;537.90;2406.40;;;;;;5021546;28;20061;-73
2021/09/16 05:06:20;;;;;;;17.58;10.73;;;537.90;2406.40;;;;;;5025532;28;20051;-73
2021/09/16 05:08:45;;;;;;;15.40;11.75;;;538.00;2406.40;;;;;;5046667;28;20037;-73
2021/09/16 05:11:12;;;;;;;19.02;11.73;;;537.90;2406.40;;;;;;5045314;28;20079;-73
2021/09/16 05:13:38;;;;;;;15.98;11.25;;;537.90;2406.40;;;;;;5043824;28;20104;-73
2021/09/16 05:16:05;;;;;;;17.30;12.40;;;538.00;2406.40;;;;;;5045836;28;20104;-74
2021/09/16 05:18:30;;;;;;;18.05;12.35;;;538.00;2406.40;;;;;;5051656;28;20036;-73
2021/09/16 05:20:57;;;;;;;19.35;12.25;;;537.90;2406.40;;;;;;5051752;28;20029;-73
2021/09/16 05:23:23;;;;;;;16.15;12.63;;;538.00;2406.40;;;;;;5051104;28;20031;-73
2021/09/16 05:25:49;;;;;;;19.30;14.25;;;538.00;2406.40;;;;;;5044206;28;20017;-73
2021/09/16 05:28:15;;;;;;;24.73;14.50;;;538.00;2406.40;;;;;;5051875;28;20047;-73
2021/09/16 05:30:40;;;;;;;19.92;12.05;;;538.10;2406.40;;;;;;5051654;28;20474;-73
2021/09/16 05:33:09;;;;;;;23.17;13.23;;;538.10;2406.40;;;;;;5050941;28;20029;-73
2021/09/16 05:35:36;;;;;;;21.88;13.13;;;538.10;2406.40;;;;;;5043239;28;20021;-73
2021/09/16 05:38:03;;;;;;;17.25;11.98;;;538.10;2406.40;;;;;;5030896;28;20014;-73
2021/09/16 05:40:28;;;;;;;20.30;13.05;;;538.10;2406.40;;;;;;5041445;28;20474;-73
2021/09/16 05:42:54;;;;;;;19.13;11.95;;;538.10;2406.40;;;;;;5046889;28;20104;-73
2021/09/16 05:45:20;;;;;;;17.00;12.02;;;538.10;2406.40;;;;;;5024521;28;20031;-73
2021/09/16 05:47:46;;;;;;;25.35;17.15;;;538.20;2406.40;;;;;;5022391;28;20025;-74
2021/09/16 05:50:11;;;;;;;22.42;15.52;;;538.20;2406.40;;;;;;5044098;28;20045;-73
2021/09/16 05:52:37;;;;;;;22.23;13.50;;;538.40;2406.40;;;;;;5045261;28;20033;-73
2021/09/16 05:55:05;;;;;;;22.23;14.63;;;538.50;2406.40;;;;;;5021783;28;20354;-74
2021/09/16 05:57:30;;;;;;;23.25;13.80;;;563.20;2432.00;;;;;;5027840;28;20072;-74
2021/09/16 05:59:56;;;;;;;21.17;14.00;;;563.30;2432.00;;;;;;5041199;28;20064;-73
2021/09/16 06:02:22;;;;;;;15.45;12.88;;;563.40;2432.00;;;;;;5021583;28;20022;-74
2021/09/16 06:04:48;;;;;;;18.48;11.40;;;563.40;2432.00;;;;;;5023665;28;20060;-73
2021/09/16 06:07:13;;;;;;;19.92;13.23;;;563.50;2432.00;;;;;;5043993;28;20029;-73
2021/09/16 06:09:39;;;;;;;15.05;11.63;;;563.60;2432.00;;;;;;5038290;28;20029;-73
2021/09/16 06:12:07;;;;;;;14.88;12.00;;;563.70;2432.00;;;;;;5022843;28;20107;-73
2021/09/16 06:14:34;;;;;;;16.67;12.88;;;563.70;2432.00;;;;;;5044113;28;20388;-73
2021/09/16 06:17:00;;;;;;;22.05;14.65;;;563.90;2432.00;;;;;;5040602;28;20055;-73
2021/09/16 06:19:26;;;;;;;27.50;15.90;;;564.00;2432.00;;;;;;5038775;28;20364;-73
2021/09/16 06:21:52;;;;;;;22.20;16.48;;;564.00;2432.00;;;;;;5039377;28;20032;-73
2021/09/16 06:24:18;;;;;;;28.45;17.13;;;588.80;2432.00;;;;;;5025288;28;20491;-72
2021/09/16 06:26:44;;;;;;;22.13;16.67;;;588.80;2432.00;;;;;;5042091;28;20021;-73
2021/09/16 06:29:10;;;;;;;31.13;16.60;;;588.80;2432.00;;;;;;5020056;28;20094;-73
2021/09/16 06:31:36;;;;;;;22.25;14.40;;;588.80;2432.00;;;;;;5052431;28;20025;-73
2021/09/16 06:34:02;;;;;;;22.88;14.98;;;588.90;2432.00;;;;;;5044403;28;20114;-73
2021/09/16 06:36:28;;;;;;;24.48;15.32;;;588.90;2432.00;;;;;;5044008;28;20471;-72
2021/09/16 06:38:54;;;;;;;20.73;15.73;;;589.00;2432.00;;;;;;5053244;28;20040;-72
2021/09/16 06:41:19;;;;;;;20.67;14.85;;;588.90;2432.00;;;;;;5049040;28;20030;-73
2021/09/16 06:43:45;;;;;;;21.73;16.83;;;589.00;2432.00;;;;;;5050588;28;20025;-72
2021/09/16 06:46:11;;;;;;;23.80;14.63;;;588.90;2432.00;;;;;;5051202;28;20021;-72
2021/09/16 06:48:37;;;;;;;22.20;15.35;;;588.90;2432.00;;;;;;5040770;28;20022;-74
2021/09/16 06:51:03;;;;;;;26.45;15.90;;;589.00;2432.00;;;;;;5039104;28;20033;-72
2021/09/16 06:53:29;;;;;;;23.88;16.40;;;588.90;2432.00;;;;;;5019117;28;20045;-72
2021/09/16 06:55:55;;;;;;;22.63;16.35;;;588.90;2432.00;;;;;;5046527;28;20113;-72
2021/09/16 06:58:20;;;;;;;19.42;15.68;;;589.00;2432.00;;;;;;5024406;28;20040;-72
2021/09/16 07:00:46;;;;;;;23.30;15.98;;;589.20;2432.00;;;;;;5025341;28;20028;-72
2021/09/16 07:03:12;;;;;;;22.42;17.02;;;589.30;2432.00;;;;;;5042636;28;20033;-72
2021/09/16 07:05:38;;;;;;;21.02;16.38;;;589.30;2432.00;;;;;;5046713;28;20036;-73
2021/09/16 07:08:04;;;;;;;27.70;16.70;;;589.40;2432.00;;;;;;5049263;28;20029;-72
2021/09/16 07:10:30;;;;;;;27.13;17.70;;;589.60;2432.00;;;;;;5040379;28;20083;-72
2021/09/16 07:12:56;;;;;;;27.05;18.05;;;589.60;2432.00;;;;;;5029797;28;20032;-72
2021/09/16 07:15:21;;;;;;;22.85;16.25;;;589.70;2432.00;;;;;;5047190;28;20025;-72
2021/09/16 07:17:47;;;;;;;26.15;18.70;;;614.50;2432.00;;;;;;5030956;28;20558;-72
2021/09/16 07:20:13;;;;;;;30.23;17.90;;;614.70;2432.00;;;;;;5054613;28;20222;-72
2021/09/16 07:22:39;;;;;;;21.20;17.40;;;614.90;2432.00;;;;;;5058465;28;20090;-73
2021/09/16 07:25:07;;;;;;;21.17;16.50;;;615.00;2432.00;;;;;;5051122;28;20040;-71
2021/09/16 07:27:33;;;;;;;28.10;18.02;;;615.20;2432.00;;;;;;5035300;28;20039;-71
2021/09/16 07:29:59;;;;;;;28.15;18.60;;;640.00;2432.00;;;;;;5036552;28;20022;-71
2021/09/16 07:32:24;;;;;;;25.40;16.98;;;640.10;2432.00;;;;;;5052685;28;20108;-71
2021/09/16 07:34:50;;;;;;;27.42;16.20;;;640.20;2432.00;;;;;;5052534;28;20017;-71
2021/09/16 07:37:16;;;;;;;22.00;15.50;;;640.40;2432.00;;;;;;5035020;28;20041;-71
2021/09/16 07:39:42;;;;;;;32.20;15.68;;;640.60;2432.00;;;;;;5053593;28;20040;-71
2021/09/16 07:42:08;;;;;;;28.00;16.15;;;640.80;2432.00;;;;;;5052795;28;20029;-71
2021/09/16 07:44:34;;;;;;;22.88;15.60;;;640.80;2432.00;;;;;;5052557;28;20025;-71
2021/09/16 07:47:00;;;;;;;22.25;14.80;;;665.60;2432.00;;;;;;5059482;28;20017;-71
2021/09/16 07:49:25;;;;;;;21.02;15.65;;;665.90;2432.00;;;;;;5058617;28;20099;-71
2021/09/16 07:51:51;;;;;;;18.67;15.48;;;666.10;2432.00;;;;;;5052147;28;20032;-71
2021/09/16 07:54:17;;;;;;;23.77;14.38;;;666.50;2432.00;;;;;;5040337;28;20534;-72
2021/09/16 07:56:42;;;;;;;21.98;15.00;;;691.20;2432.00;;;;;;5062747;28;20033;-71
2021/09/16 07:59:08;;;;;;;18.55;14.07;;;691.50;2432.00;;;;;;5052235;28;20029;-72
2021/09/16 08:01:35;;;;;;;19.85;14.75;;;691.70;2432.00;;;;;;5043068;28;20025;-71
2021/09/16 08:04:04;;;;;;;20.02;13.77;;;691.90;2432.00;;;;;;5034937;28;20021;-71
2021/09/16 08:06:30;;;;;;;16.38;13.10;;;716.80;2432.00;;;;;;5034220;28;20049;-71
2021/09/16 08:08:56;;;;;;;21.25;13.48;;;717.30;2432.00;;;;;;5036678;28;20029;-71
2021/09/16 08:11:23;;;;;;;17.83;13.90;;;717.60;2432.00;;;;;;5047513;28;20033;-71
2021/09/16 08:13:49;;;;;;;18.88;13.27;;;742.60;2432.00;;;;;;5040107;28;20070;-72
2021/09/16 08:16:15;;;;;;;24.23;14.88;;;742.90;2406.40;;;;;;5017607;28;20041;-71
2021/09/16 08:18:41;;;;;;;22.77;13.07;;;743.00;2380.80;;;;;;5047383;28;20430;-71
2021/09/16 08:21:07;;;;;;;20.20;13.45;;;743.10;2355.20;;;;;;5012529;28;20060;-71
2021/09/16 08:23:33;;;;;;;19.83;13.65;;;743.30;2304.00;;;;;;5031533;28;20076;-72
2021/09/16 08:25:59;;;;;;;19.25;14.73;;;768.00;2304.00;;;;;;5044841;28;20059;-71
2021/09/16 08:28:25;;;;;;;18.08;14.35;;;768.30;2278.40;;;;;;5034235;28;20086;-71
2021/09/16 08:30:50;;;;;;;17.63;12.85;;;768.50;2252.80;;;;;;5044964;28;20028;-71
2021/09/16 08:33:17;;;;;;;16.23;12.40;;;793.60;2227.20;;;;;;5031396;28;20013;-71
2021/09/16 08:35:43;;;;;;;15.23;12.98;;;793.60;2201.60;;;;;;5048863;28;20104;-71
2021/09/16 08:38:09;;;;;;;19.90;16.00;;;794.20;2124.80;;;;;;5016096;28;20030;-71
2021/09/16 08:40:35;;;;;;;57.13;39.92;;;819.20;2099.20;;;;;;5047480;28;20529;-71
2021/09/16 08:43:02;;;;;;;22.35;15.43;;;819.90;2022.40;;;;;;5044747;28;20032;-72
2021/09/16 08:45:28;;;;;;;20.75;11.70;;;820.10;1971.20;;;;;;5022697;28;20720;-72
2021/09/16 08:47:54;;;;;;;40.65;33.05;;;819.90;1971.20;;;;;;5039251;28;20022;-72
2021/09/16 08:50:23;;;;;;;72.78;60.53;;;820.10;1971.20;;;;;;5044116;28;20126;-72
2021/09/16 08:52:49;;;;;;;29.77;22.17;;;845.20;1971.20;;;;;;5047252;28;20048;-72
2021/09/16 08:55:17;;;;;;;15.65;11.30;;;845.30;1868.80;;;;;;5030940;28;20035;-72
2021/09/16 08:57:45;;;;;;;15.43;11.82;;;845.30;1817.60;;;;;;5030685;28;20017;-72
2021/09/16 09:00:17;;;;;;;16.38;8.43;;;845.50;1766.40;;;;;;5029367;28;20176;-71
2021/09/16 09:02:45;;;;;;;12.30;8.02;;;845.50;1689.60;;;;;;5030405;28;20128;-71
2021/09/16 09:05:12;;;;;;;16.50;12.68;;;845.30;1715.20;;;;;;5029963;28;20021;-71
2021/09/16 09:07:46;;;;;;;15.02;10.63;;;845.30;1715.20;;;;;;5036827;28;20554;-72
2021/09/16 09:10:40;;;;;;;11.07;8.03;;;845.30;1766.40;;;;;;5027260;28;20418;-72
2021/09/16 09:13:09;;;;;;;64.70;50.85;;;844.90;1740.80;;;;;;5049314;28;20480;-72
2021/09/16 09:15:38;;;;;;;17.23;9.70;;;845.00;1740.80;;;;;;5027260;28;20493;-72
2021/09/16 09:18:08;;;;;;;19.98;11.27;;;844.90;1715.20;;;;;;5046534;28;20473;-72
2021/09/16 09:21:02;;;;;;;11.98;7.60;;;844.90;1715.20;;;;;;5030397;28;20045;-73
2021/09/16 09:23:34;;;;;;;9.35;8.35;;;845.00;1689.60;;;;;;5049328;28;20488;-73
2021/09/16 09:26:18;;;;;;;9.65;7.65;;;845.30;1689.60;;;;;;5042717;28;20023;-72
2021/09/16 09:28:44;;;;;;;13.52;7.38;;;845.40;1638.40;;;;;;5050862;28;20029;-72
2021/09/16 09:31:16;;;;;;;10.88;6.50;;;845.30;1612.80;;;;;;5044614;28;20026;-72
2021/09/16 09:33:43;;;;;;;7.97;5.60;;;845.30;1561.60;;;;;;5050604;28;20388;-74
2021/09/16 09:36:13;;;;;;;9.77;6.32;;;845.10;1536.00;;;;;;5047050;28;20402;-72
2021/09/16 09:38:48;;;;;;;7.50;6.32;;;845.30;1536.00;;;;;;5044310;28;20502;-72
2021/09/16 09:41:26;;;;;;;11.48;6.85;;;845.30;1510.40;;;;;;5021985;28;20036;-72
2021/09/16 09:44:03;;;;;;;8.48;5.60;;;845.40;1484.80;;;;;;5044168;28;20503;-72
2021/09/16 09:46:29;;;;;;;9.43;5.03;;;845.70;1484.80;;;;;;5051149;28;20021;-72
2021/09/16 09:49:07;;;;;;;8.85;6.45;;;870.60;1484.80;;;;;;5024040;28;20090;-72
2021/09/16 09:51:38;;;;;;;7.70;4.88;;;896.10;1459.20;;;;;;5025560;28;20428;-72
2021/09/16 09:54:32;;;;;;;11.88;6.43;;;896.70;1382.40;;;;;;5049138;28;20841;-72
2021/09/16 09:57:04;;;;;;;10.07;5.57;;;922.20;1356.80;;;;;;5030807;28;20029;-72
2021/09/16 09:59:48;;;;;;;9.68;5.88;;;947.60;1305.60;;;;;;5033110;28;20018;-72
2021/09/16 10:02:15;;;;;;;13.02;6.40;;;972.90;1305.60;;;;;;5041689;28;20025;-72
2021/09/16 10:04:42;;;;;;;9.40;6.38;;;973.30;1305.60;;;;;;5036395;28;20092;-73
2021/09/16 10:07:08;;;;;;;11.30;7.47;;;973.40;1331.20;;;;;;5029838;28;20021;-72
2021/09/16 10:09:34;;;;;;;9.48;6.88;;;998.40;1356.80;;;;;;5030852;28;20484;-72
2021/09/16 10:12:00;;;;;;;12.68;7.28;;;998.50;1331.20;;;;;;5031211;28;20028;-72
2021/09/16 10:14:26;;;;;;;12.52;6.45;;;998.40;1331.20;;;;;;5040469;28;20025;-72
2021/09/16 10:16:52;;;;;;;17.17;6.35;;;973.40;1228.80;;;;;;5046008;28;20025;-72
2021/09/16 10:19:18;;;;;;;19.05;7.70;;;973.70;1203.20;;;;;;5050155;28;20355;-73
2021/09/16 10:21:44;;;;;;;19.48;7.75;;;998.60;1203.20;;;;;;5030612;28;20040;-72
2021/09/16 10:24:14;;;;;;;12.93;6.82;;;998.70;1228.80;;;;;;5036847;28;20037;-73
2021/09/16 10:26:41;;;;;;;17.33;6.78;;;998.60;1203.20;;;;;;5032076;28;20079;-73
2021/09/16 10:29:27;;;;;;;11.77;6.88;;;998.40;1203.20;;;;;;5030287;28;20028;-72
2021/09/16 10:32:07;;;;;;;17.48;6.70;;;998.40;1203.20;;;;;;5042592;28;20036;-72
2021/09/16 10:34:48;;;;;;;11.95;7.93;;;973.60;1228.80;;;;;;5042806;28;20090;-73
2021/09/16 10:37:19;;;;;;;16.00;8.55;;;999.00;1254.40;;;;;;5045480;28;20083;-73
2021/09/16 10:39:46;;;;;;;14.40;7.53;;;998.90;1280.00;;;;;;5042093;28;20151;-72
2021/09/16 10:42:13;;;;;;;16.90;7.38;;;999.10;1254.40;;;;;;5045903;28;20044;-72
2021/09/16 10:44:39;;;;;;;12.65;7.80;;;998.90;1280.00;;;;;;5024424;28;20037;-72
2021/09/16 10:47:20;;;;;;;13.50;7.22;;;999.10;1254.40;;;;;;5042602;28;20426;-72
2021/09/16 10:49:48;;;;;;;13.02;6.20;;;999.10;1228.80;;;;;;5039041;28;20040;-73
2021/09/16 10:52:13;;;;;;;17.08;7.47;;;999.20;1203.20;;;;;;5041984;28;20289;-72
2021/09/16 10:54:51;;;;;;;13.07;6.93;;;1024.30;1203.20;;;;;;5042261;28;20112;-73
2021/09/16 10:57:30;;;;;;;13.38;6.72;;;1024.20;1203.20;;;;;;5045864;28;20017;-73
2021/09/16 10:59:56;;;;;;;14.50;7.38;;;1024.20;1203.20;;;;;;5045808;28;20032;-75
2021/09/16 11:02:48;;;;;;;15.70;7.10;;;999.30;1177.60;;;;;;5038987;28;20025;-75
2021/09/16 11:05:17;;;;;;;13.32;7.38;;;1024.00;1203.20;;;;;;5045555;28;20025;-74
2021/09/16 11:07:45;;;;;;;16.90;8.05;;;998.60;1203.20;;;;;;5035265;28;20026;-74
2021/09/16 11:10:20;;;;;;;14.52;8.65;;;1024.00;1177.60;;;;;;5054451;28;20025;-74
2021/09/16 11:12:48;;;;;;;17.08;7.72;;;1024.00;1177.60;;;;;;5037563;28;20036;-74
2021/09/16 11:15:26;;;;;;;18.40;9.98;;;1024.20;1177.60;;;;;;5023264;28;20033;-74
2021/09/16 11:18:02;;;;;;;16.60;8.07;;;1024.40;1177.60;;;;;;5045825;28;20447;-74
2021/09/16 11:20:27;;;;;;;17.25;8.38;;;1024.10;1177.60;;;;;;5048982;28;20029;-73
2021/09/16 11:22:53;;;;;;;13.63;6.90;;;1024.10;1177.60;;;;;;5042424;28;20119;-74
2021/09/16 11:25:19;;;;;;;16.83;8.88;;;1024.40;1152.00;;;;;;5053271;28;20055;-74
2021/09/16 11:27:45;;;;;;;20.00;9.27;;;999.30;1177.60;;;;;;5035965;28;20082;-73
2021/09/16 11:30:17;;;;;;;15.95;7.80;;;1024.00;1203.20;;;;;;5040325;28;20527;-73
2021/09/16 11:32:43;;;;;;;15.07;8.27;;;1024.50;1177.60;;;;;;5035930;28;20049;-74
2021/09/16 11:35:11;;;;;;;19.30;8.35;;;1024.50;1152.00;;;;;;5044672;28;20096;-73
2021/09/16 11:37:42;;;;;;;14.82;7.43;;;1024.10;1177.60;;;;;;5019532;28;20076;-73
2021/09/16 11:40:24;;;;;;;17.52;8.02;;;1024.40;1152.00;;;;;;5034825;28;20532;-73
2021/09/16 11:42:56;;;;;;;19.17;6.55;;;999.20;1152.00;;;;;;5038680;28;20028;-74
2021/09/16 11:45:22;;;;;;;15.93;7.10;;;999.00;1152.00;;;;;;5045696;28;20022;-73
2021/09/16 11:47:56;;;;;;;20.65;7.53;;;998.40;1152.00;;;;;;5034056;28;20357;-73
2021/09/16 11:50:36;;;;;;;21.55;7.93;;;998.80;1152.00;;;;;;5036440;28;20467;-73
2021/09/16 11:53:05;;;;;;;19.77;7.22;;;999.20;1126.40;;;;;;5040140;28;20493;-73
2021/09/16 11:55:46;;;;;;;17.52;7.10;;;998.60;1152.00;;;;;;5034661;28;20786;-73
2021/09/16 11:58:16;;;;;;;18.17;7.53;;;998.70;1152.00;;;;;;5036709;28;20029;-73
2021/09/16 12:00:48;;;;;;;20.13;7.18;;;999.20;1126.40;;;;;;5035847;28;20033;-73
2021/09/16 12:03:39;;;;;;;17.85;7.15;;;1024.00;1100.80;;;;;;5035863;28;20033;-72